| time (UTC) | temp F | wind direction | speed MPH | gust MPH | rain 1hr in | rain 24hr in | rain mn in | humidity % | barometer mb |
| 20260506044527 | 58 | 13 | 0.0 | 0.0 | 0.00 | 0.00 | 0.00 | 100 | 1007.3 |
| 20260506043022 | 57 | 13 | 2.0 | 0.0 | 0.00 | 0.00 | 0.00 | 100 | 1007.2 |
| 20260506041517 | 58 | 60 | 1.0 | 0.0 | 0.00 | 0.00 | 0.00 | 100 | 1007.2 |
| 20260506040027 | 58 | 55 | 1.0 | 0.0 | 0.00 | 0.00 | 0.00 | 100 | 1007.1 |
| 20260506034511 | 58 | 63 | 2.0 | 0.0 | 0.00 | 0.00 | 0.00 | 100 | 1006.9 |
| 20260506033006 | 60 | 338 | 0.0 | 0.0 | 0.00 | 0.00 | 0.00 | 100 | 1006.9 |
| 20260506031501 | 60 | 338 | 0.0 | 0.0 | 0.00 | 0.00 | 0.00 | 100 | 1006.9 |
| 20260506030059 | 60 | 338 | 1.0 | 0.0 | 0.00 | 0.00 | 0.00 | 100 | 1006.8 |
| 20260506024557 | 59 | 338 | 3.0 | 0.0 | 0.00 | 0.00 | 0.00 | 100 | 1007.0 |
| 20260506023057 | 61 | 249 | 0.0 | 0.0 | 0.00 | 0.00 | 0.00 | 100 | 1007.2 |
| 20260506021554 | 62 | 244 | 1.0 | 0.0 | 0.00 | 0.00 | 0.00 | 100 | 1007.2 |
| 20260506020040 | 63 | 244 | 1.0 | 0.0 | 0.00 | 0.00 | 0.00 | 100 | 1007.1 |
| 20260506014537 | 64 | 244 | 1.0 | 0.0 | 0.00 | 0.00 | 0.00 | 100 | 1006.9 |
| 20260506013030 | 65 | 342 | 2.0 | 0.0 | 0.00 | 0.00 | 0.00 | 100 | 1006.8 |
| 20260506011529 | 66 | 332 | 2.0 | 0.0 | 0.00 | 0.00 | 0.00 | 100 | 1006.7 |
| 20260506010040 | 68 | 261 | 1.0 | 0.0 | 0.00 | 0.00 | 0.00 | 100 | 1006.7 |
| 20260506004517 | 70 | 213 | 0.0 | 0.0 | 0.00 | 0.00 | 0.00 | 100 | 1006.5 |
| 20260506003012 | 71 | 215 | 1.0 | 0.0 | 0.00 | 0.00 | 0.00 | 100 | 1006.4 |
| 20260506001508 | 72 | 293 | 1.0 | 0.0 | 0.00 | 0.00 | 0.00 | 100 | 1006.1 |
| 20260506000004 | 73 | 331 | 4.0 | 0.0 | 0.00 | 0.00 | 0.00 | 100 | 1005.9 |
| 20260505234611 | 74 | 266 | 3.0 | 0.0 | 0.00 | 0.00 | 0.00 | 100 | 1005.7 |
| 20260505233055 | 75 | 202 | 1.0 | 0.0 | 0.00 | 0.00 | 0.00 | 100 | 1005.7 |
| 20260505231553 | 75 | 186 | 3.0 | 0.0 | 0.00 | 0.00 | 0.00 | 100 | 1005.7 |
| 20260505230046 | 75 | 338 | 6.0 | 0.0 | 0.00 | 0.00 | 0.00 | 100 | 1005.4 |
| 20260505224542 | 76 | 279 | 7.0 | 0.0 | 0.00 | 0.00 | 0.00 | 100 | 1005.1 |
| 20260505223040 | 77 | 292 | 9.0 | 0.0 | 0.00 | 0.00 | 0.00 | 100 | 1005.1 |
| 20260505221534 | 81 | 282 | 10.0 | 0.0 | 0.00 | 0.00 | 0.00 | 100 | 1004.9 |
| 20260505220029 | 82 | 183 | 12.0 | 0.0 | 0.00 | 0.00 | 0.00 | 100 | 1004.7 |
| 20260505214552 | 81 | 205 | 15.0 | 0.0 | 0.00 | 0.00 | 0.00 | 100 | 1004.7 |
| 20260505213021 | 82 | 181 | 18.0 | 0.0 | 0.00 | 0.00 | 0.00 | 100 | 1004.7 |
| 20260505211516 | 82 | 194 | 20.0 | 0.0 | 0.00 | 0.00 | 0.00 | 100 | 1004.5 |
| 20260505210011 | 81 | 210 | 17.0 | 0.0 | 0.00 | 0.00 | 0.00 | 100 | 1004.4 |
| 20260505204508 | 82 | 214 | 16.0 | 0.0 | 0.00 | 0.00 | 0.00 | 100 | 1004.4 |
| 20260505203008 | 80 | 211 | 16.0 | 0.0 | 0.00 | 0.00 | 0.00 | 100 | 1004.7 |
| 20260505201558 | 81 | 211 | 20.0 | 0.0 | 0.00 | 0.00 | 0.00 | 100 | 1004.7 |
| 20260505200105 | 80 | 223 | 21.0 | 0.0 | 0.00 | 0.00 | 0.00 | 100 | 1004.9 |
| 20260505194559 | 81 | 197 | 23.0 | 0.0 | 0.00 | 0.00 | 0.00 | 100 | 1005.2 |
| 20260505193050 | 81 | 206 | 19.0 | 0.0 | 0.00 | 0.00 | 0.00 | 100 | 1005.3 |
| 20260505191541 | 81 | 192 | 19.0 | 0.0 | 0.00 | 0.00 | 0.00 | 100 | 1005.3 |
| 20260505190038 | 81 | 178 | 17.0 | 0.0 | 0.00 | 0.00 | 0.00 | 100 | 1005.3 |
| 20260505184532 | 81 | 213 | 19.0 | 0.0 | 0.00 | 0.00 | 0.00 | 100 | 1005.3 |
| 20260505183027 | 80 | 174 | 21.0 | 0.0 | 0.00 | 0.00 | 0.00 | 100 | 1005.6 |
| 20260505181523 | 81 | 207 | 19.0 | 0.0 | 0.00 | 0.00 | 0.00 | 100 | 1005.8 |
| 20260505180040 | 80 | 215 | 18.0 | 0.0 | 0.00 | 0.00 | 0.00 | 100 | 1006.2 |
| 20260505174530 | 80 | 200 | 17.0 | 0.0 | 0.00 | 0.00 | 0.00 | 100 | 1006.3 |
| 20260505173017 | 79 | 198 | 19.0 | 0.0 | 0.00 | 0.00 | 0.00 | 100 | 1006.4 |
| 20260505171508 | 80 | 211 | 17.0 | 0.0 | 0.00 | 0.00 | 0.00 | 100 | 1006.4 |
| 20260505170001 | 80 | 238 | 18.0 | 0.0 | 0.00 | 0.00 | 0.00 | 100 | 1006.6 |
| 20260505164557 | 79 | 180 | 20.0 | 0.0 | 0.00 | 0.00 | 0.00 | 100 | 1006.7 |
| 20260505163055 | 78 | 217 | 16.0 | 0.0 | 0.00 | 0.00 | 0.00 | 100 | 1006.8 |
| 20260505161549 | 77 | 241 | 17.0 | 0.0 | 0.00 | 0.00 | 0.00 | 100 | 1007.1 |
| 20260505153035 | 76 | 232 | 20.0 | 0.0 | 0.00 | 0.00 | 0.00 | 100 | 1007.6 |
| 20260505151533 | 75 | 218 | 21.0 | 0.0 | 0.00 | 0.00 | 0.00 | 100 | 1007.7 |
| 20260505124547 | 65 | 94 | 1.0 | 0.0 | 0.00 | 0.00 | 0.00 | 100 | 1008.7 |
| 20260505123047 | 63 | 24 | 2.0 | 0.0 | 0.00 | 0.00 | 0.00 | 100 | 1008.8 |
| 20260505121538 | 61 | 66 | 3.0 | 0.0 | 0.00 | 0.00 | 0.00 | 100 | 1008.9 |
| 20260505120036 | 59 | 76 | 2.0 | 0.0 | 0.00 | 0.00 | 0.00 | 100 | 1008.8 |
| 20260505114530 | 56 | 34 | 2.0 | 0.0 | 0.00 | 0.00 | 0.00 | 100 | 1008.9 |
| 20260505113025 | 55 | 360 | 2.0 | 0.0 | 0.00 | 0.00 | 0.00 | 100 | 1008.9 |
| 20260505111521 | 54 | 10 | 2.0 | 0.0 | 0.00 | 0.00 | 0.00 | 100 | 1008.6 |
| 20260505101505 | 52 | 94 | 3.0 | 0.0 | 0.00 | 0.00 | 0.00 | 100 | 1008.2 |
| 20260505100059 | 52 | 277 | 3.0 | 0.0 | 0.00 | 0.00 | 0.00 | 100 | 1008.4 |
| 20260505094555 | 52 | 138 | 3.0 | 0.0 | 0.00 | 0.00 | 0.00 | 100 | 1008.3 |
| 20260505093050 | 51 | 346 | 1.0 | 0.0 | 0.00 | 0.00 | 0.00 | 100 | 1008.2 |
| 20260505091605 | 51 | 164 | 2.0 | 0.0 | 0.00 | 0.00 | 0.00 | 100 | 1008.0 |
| 20260505090045 | 52 | 41 | 4.0 | 0.0 | 0.00 | 0.00 | 0.00 | 100 | 1007.9 |
| 20260505084538 | 52 | 91 | 4.0 | 0.0 | 0.00 | 0.00 | 0.00 | 100 | 1007.8 |
| 20260505083035 | 53 | 46 | 5.0 | 0.0 | 0.00 | 0.00 | 0.00 | 100 | 1007.9 |
| 20260505081530 | 53 | 32 | 4.0 | 0.0 | 0.00 | 0.00 | 0.00 | 100 | 1007.9 |
| 20260505080025 | 53 | 42 | 4.0 | 0.0 | 0.00 | 0.00 | 0.00 | 100 | 1007.9 |
| 20260505074520 | 53 | 47 | 4.0 | 0.0 | 0.00 | 0.00 | 0.00 | 100 | 1007.6 |
| 20260505073016 | 54 | 31 | 4.0 | 0.0 | 0.00 | 0.00 | 0.00 | 100 | 1007.5 |
| 20260505071511 | 54 | 44 | 4.0 | 0.0 | 0.00 | 0.00 | 0.00 | 100 | 1007.4 |
| 20260505070007 | 54 | 52 | 4.0 | 0.0 | 0.00 | 0.00 | 0.00 | 100 | 1007.3 |
| 20260505064503 | 55 | 87 | 1.0 | 0.0 | 0.00 | 0.00 | 0.00 | 100 | 1007.3 |
| 20260505063138 | 55 | 351 | 6.0 | 0.0 | 0.00 | 0.00 | 0.00 | 100 | 1007.5 |
| 20260505061627 | 55 | 116 | 5.0 | 0.0 | 0.00 | 0.00 | 0.00 | 100 | 1007.5 |
| 20260505060059 | 55 | 28 | 3.0 | 0.0 | 0.00 | 0.00 | 0.00 | 100 | 1007.8 |